FYV weather

Public forecast

Using degrees Fahrenheit for public forecast. Weather courtesy of forecast.io.

Current aviation weather report (METAR) for Drake Field

Retrieved 2020/08/15 12:53 UTC (12 minutes ago):

KFYV 151253Z 00000KT 10SM CLR 21/21 A3003 RMK AO2 SLP155 T02110206

Aviation forecast (TAF) for Drake Field

Retrieved 2020/08/15 12:22 UTC (43 minutes ago):

TAF KFYV 151120Z 1512/1612 00000KT 6SM BR FEW250 TEMPO 1512/1513 3SM BR FM151500 34005KT P6SM SCT035 SCT250 FM160100 33003KT P6SM SCT250